Flight Track Log - Related Links

Times and Time Zones

All times are in EDT time to prevent confusion due to time zone crossing. See the N885WT flight status page for this flight to view local times or setup timezone preferences in your user account.

Time Position Orientation Groundspeed Altitude Reporting Facility
EDT Latitude Longitude Course Direction KTS MPH feet Rate Location/Type
Thu 10:56:46 AM 32.7167 -117.1500 94° East 181 208 1,800  Level Southern California TRACON
Thu 10:57:48 AM 32.7128 -117.0914 94° East 195 224 3,500 2,226 Climbing Los Angeles Center
Thu 10:58:50 AM 32.7475 -117.0161 61° Northeast 250 288 6,400 3,048 Climbing Los Angeles Center
Thu 10:59:52 AM 32.8144 -116.9439 42° Northeast 265 305 9,800 2,419 Climbing Los Angeles Center
Thu 11:00:54 AM 32.8747 -116.8764 43° Northeast 286 329 11,400 1,935 Climbing Los Angeles Center
Thu 11:01:56 AM 32.9439 -116.8019 42° Northeast 321 369 13,800 2,323 Climbing Los Angeles Center
Thu 11:02:58 AM 33.0119 -116.7264 43° Northeast 330 380 16,200 1,839 Climbing Los Angeles Center
Thu 11:04:00 AM 33.0847 -116.6475 42° Northeast 343 395 17,600 1,161 Climbing Los Angeles Center
Thu 11:05:02 AM 33.1700 -116.5622 40° Northeast 385 443 18,600 1,355 Climbing Los Angeles Center
Thu 11:06:04 AM 33.2631 -116.4786 37° Northeast 416 479 20,400 1,742 Climbing Los Angeles Center
Thu 11:07:06 AM 33.3578 -116.3969 36° Northeast 417 480 22,200 1,597 Climbing Los Angeles Center
Thu 11:08:08 AM 33.4761 -116.2933 36° Northeast 431 496 23,700 1,500 Climbing Los Angeles Center
Thu 11:09:10 AM 33.5756 -116.2053 36° Northeast 441 507 25,300 1,452 Climbing Los Angeles Center
Thu 11:10:12 AM 33.6778 -116.1139 37° Northeast 454 522 26,700 1,306 Climbing Los Angeles Center
Thu 11:11:14 AM 33.7811 -116.0219 36° Northeast 460 529 28,000 1,258 Climbing Los Angeles Center
Thu 11:12:16 AM 33.8867 -115.9272 37° Northeast 469 540 29,300 1,113 Climbing Los Angeles Center
Thu 11:13:18 AM 33.9939 -115.8308 37° Northeast 480 552 30,300 823 Climbing Los Angeles Center
Thu 11:14:20 AM 34.1264 -115.7111 37° Northeast 493 567 31,000 532 Climbing Los Angeles Center
Thu 11:15:22 AM 34.2181 -115.6283 37° Northeast 506 582 31,400 968 Climbing Los Angeles Center
Thu 11:16:24 AM 34.3550 -115.5061 36° Northeast 511 588 33,000 1,500 Climbing Los Angeles Center
Thu 11:17:26 AM 34.4667 -115.4014 38° Northeast 509 586 34,500 1,258 Climbing Los Angeles Center
Thu 11:18:28 AM 34.5783 -115.3014 36° Northeast 504 580 35,600 1,113 Climbing Los Angeles Center
Thu 11:19:30 AM 34.7028 -115.1869 37° Northeast 507 583 36,800 1,065 Climbing Los Angeles Center
Thu 11:20:32 AM 34.8150 -115.0819 38° Northeast 509 586 37,800 1,016 Climbing Los Angeles Center
Thu 11:21:34 AM 34.9289 -114.9764 37° Northeast 513 590 38,900 1,065 Climbing Los Angeles Center
Thu 11:22:36 AM 35.0422 -114.8714 37° Northeast 514 592 40,000 919 Climbing Los Angeles Center
Thu 11:23:38 AM 35.1744 -114.7481 37° Northeast 504 580 40,800 484 Climbing Los Angeles Center
Thu 11:24:40 AM 35.2947 -114.6703 28° Northeast 498 573 41,000 97 Climbing Los Angeles Center
Thu 11:25:42 AM 35.4239 -114.6136 20° North 495 570 41,000  Level Los Angeles Center
Thu 11:26:44 AM 35.5506 -114.5569 20° North 487 560 41,000  Level Los Angeles Center
Thu 11:27:46 AM 35.6792 -114.4981 20° North 493 567 41,000  Level Los Angeles Center
Thu 11:28:48 AM 35.8406 -114.4408 16° North 510 587 41,000  Level Los Angeles Center
Thu 11:30:24 AM 36.0608 -114.3889 11° North 505 581 41,000  Level Salt Lake Center
Thu 11:31:26 AM 36.1992 -114.3533 12° North 508 585 41,000  Level Salt Lake Center
Thu 11:32:29 AM 36.3339 -114.3106 14° North 503 579 41,000  Level Salt Lake Center
Thu 11:33:31 AM 36.4683 -114.2569 18° North 505 581 41,000  Level Salt Lake Center
Thu 11:34:33 AM 36.6011 -114.1983 20° North 508 585 41,000  Level Salt Lake Center
Thu 11:35:35 AM 36.7319 -114.1331 22° Northeast 507 583 41,000  Level Salt Lake Center
Thu 11:36:37 AM 36.8908 -114.0558 21° North 503 579 41,000  Level Salt Lake Center
Thu 11:37:39 AM 37.0217 -113.9922 21° North 503 579 41,000  Level Salt Lake Center
Thu 11:38:41 AM 37.1528 -113.9256 22° Northeast 506 582 41,000  Level Salt Lake Center
Thu 11:39:43 AM 37.2839 -113.8594 22° Northeast 506 582 41,000  Level Salt Lake Center
Thu 11:40:23 AM 37.3647 -113.8194 21° North 508 585 41,000  Level Los Angeles Center
Thu 11:41:25 AM 37.4975 -113.7539 21° North 509 586 41,000  Level Los Angeles Center
Thu 11:42:27 AM 37.6561 -113.6753 21° North 508 585 41,000  Level Los Angeles Center
Thu 11:43:29 AM 37.7872 -113.6083 22° Northeast 506 582 41,000  Level Los Angeles Center
Thu 11:44:31 AM 37.9183 -113.5425 22° Northeast 504 580 41,000  Level Los Angeles Center
Thu 11:45:33 AM 38.0497 -113.4750 22° Northeast 506 582 41,000  Level Los Angeles Center
Thu 11:46:36 AM 38.1800 -113.4086 22° Northeast 503 579 41,000  Level Los Angeles Center
Thu 11:47:59 AM 38.3636 -113.3150 22° Northeast 507 583 41,000  Level Salt Lake Center
Thu 11:49:01 AM 38.4964 -113.2458 22° Northeast 511 588 41,000  Level Salt Lake Center
Thu 11:50:03 AM 38.6267 -113.1778 22° Northeast 508 585 41,000  Level Salt Lake Center
Thu 11:51:05 AM 38.7836 -113.0975 22° Northeast 506 582 41,000  Level Salt Lake Center
Thu 11:52:07 AM 38.9147 -113.0297 22° Northeast 507 583 41,000  Level Salt Lake Center
Thu 11:53:09 AM 39.0458 -112.9614 22° Northeast 507 583 41,000  Level Salt Lake Center
Thu 11:54:11 AM 39.1814 -112.9081 17° North 507 583 41,000  Level Salt Lake Center
Thu 11:55:13 AM 39.3156 -112.8514 18° North 507 583 41,000  Level Salt Lake Center
Thu 11:56:15 AM 39.4486 -112.7961 18° North 505 581 41,000  Level Salt Lake Center
Thu 11:57:17 AM 39.6108 -112.7306 17° North 508 585 41,000  Level Salt Lake Center
Thu 11:58:19 AM 39.7461 -112.6742 18° North 512 589 41,000  Level Salt Lake Center
Thu 11:59:21 AM 39.8847 -112.6178 17° North 510 587 41,000  Level Salt Lake Center
Thu 12:00:23 PM 40.0228 -112.5775 13° North 505 581 41,000  Level Salt Lake Center
Thu 12:01:25 PM 40.1725 -112.5561 North 503 579 41,000  Level Salt Lake Center
Thu 12:02:28 PM 40.3125 -112.5369 North 506 582 41,000  Level Salt Lake Center
Thu 12:03:30 PM 40.4619 -112.5139 North 502 578 41,000  Level Salt Lake Center
Thu 12:04:32 PM 40.6028 -112.4961 North 507 583 41,000  Level Salt Lake Center
Thu 12:05:34 PM 40.7533 -112.4739 North 505 581 41,000  Level Salt Lake Center
Thu 12:06:36 PM 40.8944 -112.4544 North 508 585 41,000  Level Salt Lake Center
Thu 12:07:38 PM 41.0356 -112.4339 North 510 587 41,000  Level Salt Lake Center
Thu 12:08:40 PM 41.1844 -112.4119 North 503 579 41,000  Level Salt Lake Center
Thu 12:09:42 PM 41.3244 -112.3917 North 504 580 41,000  Level Salt Lake Center
Thu 12:10:44 PM 41.4758 -112.3706 North 508 585 41,000  Level Salt Lake Center
Thu 12:11:46 PM 41.6164 -112.3500 North 508 585 41,000  Level Salt Lake Center
Thu 12:12:48 PM 41.7575 -112.3294 North 510 587 41,000  Level Salt Lake Center
Thu 12:13:50 PM 41.9114 -112.3067 North 508 585 41,000  Level Salt Lake Center
Thu 12:14:52 PM 42.0458 -112.2867 North 507 583 41,000  Level Salt Lake Center
Thu 12:15:54 PM 42.1808 -112.2672 North 508 585 41,000  Level Salt Lake Center
Thu 12:16:56 PM 42.3381 -112.2442 North 508 585 41,000  Level Salt Lake Center
Thu 12:17:58 PM 42.4861 -112.2219 North 510 587 41,000  Level Salt Lake Center
Thu 12:19:00 PM 42.6214 -112.2008 North 510 587 41,000  Level Salt Lake Center
Thu 12:20:02 PM 42.7786 -112.1769 North 509 586 41,000  Level Salt Lake Center
Thu 12:21:04 PM 42.9136 -112.1558 North 511 588 41,000  Level Salt Lake Center
Thu 12:22:06 PM 43.0708 -112.1331 North 508 585 41,000  Level Salt Lake Center
Thu 12:23:08 PM 43.2067 -112.1117 North 512 589 41,000  Level Salt Lake Center
Thu 12:24:10 PM 43.3650 -112.0864 North 511 588 41,000  Level Salt Lake Center
Thu 12:25:12 PM 43.5011 -112.0678 North 513 590 41,000  Level Salt Lake Center
Thu 12:26:14 PM 43.6619 -112.0431 North 518 596 41,000  Level Salt Lake Center
Thu 12:27:16 PM 43.7978 -112.0214 North 516 594 41,000  Level Salt Lake Center
Thu 12:28:18 PM 43.9350 -112.0000 North 518 596 41,000  Level Salt Lake Center
Thu 12:29:20 PM 44.0944 -111.9742 North 516 594 41,000  Level Salt Lake Center
Thu 12:30:22 PM 44.2314 -111.9531 North 515 593 41,000  Level Salt Lake Center
Thu 12:31:24 PM 44.3922 -111.9278 North 517 595 41,000  Level Salt Lake Center
Thu 12:32:27 PM 44.5306 -111.9058 North 518 596 41,000  Level Salt Lake Center
Thu 12:33:29 PM 44.6917 -111.8806 North 515 593 41,000  Level Salt Lake Center
Thu 12:34:31 PM 44.8317 -111.8581 North 522 601 41,000  Level Salt Lake Center
Thu 12:35:33 PM 44.9714 -111.8339 North 523 602 41,000  Level Salt Lake Center
Thu 12:36:35 PM 45.1125 -111.8111 North 515 593 41,000  Level Salt Lake Center
Thu 12:37:37 PM 45.2828 -111.7836 North 511 588 41,000  Level Salt Lake Center
Thu 12:38:39 PM 45.4256 -111.7606 North 513 590 41,000  Level Salt Lake Center
Thu 12:39:41 PM 45.5689 -111.7383 North 514 592 41,000  Level Salt Lake Center
Thu 12:40:43 PM 45.7139 -111.7139 North 517 595 41,000  Level Salt Lake Center
Thu 12:41:45 PM 45.8594 -111.6892 North 519 597 41,000  Level Salt Lake Center
Thu 12:42:47 PM 46.0044 -111.6650 North 519 597 41,000  Level Salt Lake Center
Thu 12:43:49 PM 46.1475 -111.6400 North 515 593 41,000  Level Salt Lake Center
Thu 12:44:51 PM 46.2906 -111.6147 North 514 592 41,000  Level Salt Lake Center
Thu 12:45:53 PM 46.4342 -111.5906 North 516 594 41,000  Level Salt Lake Center
Thu 12:46:55 PM 46.6031 -111.5600 North 518 596 41,000  Level Salt Lake Center
Thu 12:47:57 PM 46.7475 -111.5353 North 523 602 41,000  Level Salt Lake Center
Thu 12:48:59 PM 46.8925 -111.5089 North 524 603 41,000  Level Salt Lake Center
Thu 12:50:01 PM 47.0356 -111.4850 North 521 600 41,000  Level Salt Lake Center
Thu 12:51:03 PM 47.1789 -111.4594 North 519 597 41,000  Level Salt Lake Center
Thu 12:52:05 PM 47.3256 -111.4344 North 527 606 41,000  Level Salt Lake Center
Thu 12:53:07 PM 47.4922 -111.3558 18° North 536 617 41,000  Level Salt Lake Center
Thu 12:54:09 PM 47.6019 -111.2250 39° Northeast 551 634 41,000  Level Salt Lake Center
Thu 12:55:11 PM 47.7239 -111.0786 39° Northeast 558 642 41,000  Level Salt Lake Center
Thu 12:56:13 PM 47.8647 -110.9056 39° Northeast 555 639 41,000  Level Salt Lake Center
Thu 12:57:16 PM 47.9831 -110.7594 40° Northeast 555 639 41,000  Level Salt Lake Center
Thu 12:58:18 PM 48.0992 -110.6147 40° Northeast 550 633 41,000  Level Salt Lake Center
Thu 12:59:20 PM 48.2164 -110.4683 40° Northeast 550 633 41,000  Level Salt Lake Center
Thu 01:00:22 PM 48.3319 -110.3231 40° Northeast 547 629 41,000  Level Salt Lake Center
Thu 01:01:24 PM 48.4478 -110.1742 40° Northeast 547 629 41,000  Level Salt Lake Center
Thu 01:02:26 PM 48.5872 -109.9950 40° Northeast 550 633 41,000  Level Salt Lake Center
Thu 01:03:28 PM 48.7039 -109.8450 40° Northeast 552 635 41,000  Level Salt Lake Center
Thu 01:04:30 PM 48.8197 -109.6958 40° Northeast 550 633 41,000  Level Salt Lake Center
Thu 01:05:32 PM 48.9344 -109.5444 41° Northeast 546 628 41,000  Level Salt Lake Center
Thu 01:06:10 PM 49.0000 -109.4667 38° Northeast 550 633 41,000  Level Winnipeg Center
Thu 01:07:10 PM 49.1167 -109.3167 40° Northeast 550 633 41,000  Level Winnipeg Center
Thu 01:08:10 PM 49.2333 -109.1667 40° Northeast 540 621 41,000  Level Winnipeg Center
Thu 01:09:11 PM 49.3333 -109.0167 44° Northeast 550 633 41,000  Level Winnipeg Center
Thu 01:10:10 PM 49.4667 -108.8333 42° Northeast 550 633 41,000  Level Winnipeg Center
Thu 01:11:10 PM 49.5667 -108.7167 37° Northeast 540 621 41,000  Level Winnipeg Center
Thu 01:12:10 PM 49.7000 -108.5333 42° Northeast 540 621 41,000  Level Winnipeg Center
Thu 01:13:10 PM 49.7833 -108.4000 46° Northeast 540 621 41,000  Level Winnipeg Center
Thu 01:14:10 PM 49.9167 -108.2167 41° Northeast 550 633 41,000  Level Winnipeg Center
Thu 01:15:10 PM 50.0167 -108.0833 41° Northeast 550 633 41,000  Level Winnipeg Center
Thu 01:16:10 PM 50.1333 -107.9333 39° Northeast 550 633 41,000  Level Winnipeg Center
Thu 01:17:10 PM 50.2333 -107.7667 47° Northeast 540 621 41,000  Level Winnipeg Center
Thu 01:18:10 PM 50.3667 -107.6167 36° Northeast 540 621 41,000  Level Winnipeg Center
Thu 01:20:10 PM 50.6000 -107.3167 39° Northeast 540 621 41,000  Level Winnipeg Center
Thu 01:21:10 PM 50.7167 -107.1833 36° Northeast 540 621 41,000  Level Winnipeg Center
Thu 01:22:10 PM 50.8333 -107.0333 39° Northeast 550 633 41,000  Level Winnipeg Center
Thu 01:23:10 PM 50.9667 -106.9000 32° Northeast 540 621 41,000  Level Winnipeg Center
Thu 01:24:10 PM 51.0667 -106.7333 46° Northeast 530 610 41,000  Level Winnipeg Center
Thu 01:25:10 PM 51.1833 -106.6000 36° Northeast 530 610 41,000  Level Winnipeg Center
Thu 01:26:10 PM 51.3000 -106.4333 42° Northeast 530 610 41,000  Level Winnipeg Center
Thu 01:27:10 PM 51.4333 -106.3000 32° Northeast 530 610 41,000  Level Winnipeg Center
Thu 01:28:10 PM 51.5500 -106.1667 35° Northeast 530 610 41,000  Level Winnipeg Center
Thu 01:29:10 PM 51.6500 -106.0000 46° Northeast 530 610 41,000  Level Winnipeg Center
Thu 01:30:10 PM 51.7667 -105.8500 38° Northeast 530 610 41,000  Level Winnipeg Center
Thu 01:31:10 PM 51.8833 -105.6833 41° Northeast 530 610 41,000  Level Winnipeg Center
Thu 01:32:10 PM 52.0000 -105.5500 35° Northeast 530 610 41,000  Level Winnipeg Center
Thu 01:33:10 PM 52.1000 -105.4000 43° Northeast 530 610 41,000  Level Winnipeg Center
Thu 01:34:10 PM 52.2167 -105.2500 38° Northeast 530 610 41,000  Level Winnipeg Center
Thu 01:35:10 PM 52.3333 -105.0833 41° Northeast 530 610 41,000  Level Winnipeg Center
Thu 01:36:10 PM 52.4333 -104.9333 42° Northeast 530 610 41,000  Level Winnipeg Center
Thu 01:37:10 PM 52.5500 -104.8000 35° Northeast 530 610 41,000  Level Winnipeg Center
Thu 01:38:10 PM 52.6833 -104.6167 40° Northeast 530 610 41,000  Level Winnipeg Center
Thu 01:39:10 PM 52.7833 -104.4833 39° Northeast 530 610 41,000  Level Winnipeg Center
Thu 01:40:10 PM 52.9000 -104.3000 43° Northeast 530 610 41,000  Level Winnipeg Center
Thu 01:41:10 PM 53.0167 -104.1500 38° Northeast 520 598 41,000  Level Winnipeg Center
Thu 01:42:10 PM 53.1167 -104.0000 42° Northeast 520 598 41,000  Level Winnipeg Center
Thu 01:43:10 PM 53.2333 -103.8500 38° Northeast 520 598 41,000  Level Winnipeg Center
Thu 01:44:10 PM 53.3333 -103.6667 48° Northeast 520 598 41,000  Level Winnipeg Center
Thu 01:45:10 PM 53.4500 -103.5167 37° Northeast 520 598 41,000  Level Winnipeg Center
Thu 01:46:10 PM 53.5667 -103.3667 37° Northeast 520 598 41,000  Level Winnipeg Center
Thu 01:47:10 PM 53.6667 -103.2167 42° Northeast 510 587 41,000  Level Winnipeg Center
Thu 01:48:10 PM 53.7833 -103.0667 37° Northeast 520 598 41,000  Level Winnipeg Center
Thu 01:48:55 PM 53.8333 -102.9000 63° Northeast 510 587 41,000  Level Edmonton Center
Thu 01:49:55 PM 53.9500 -102.7167 43° Northeast 510 587 41,000  Level Edmonton Center
Thu 01:50:55 PM 54.0667 -102.5667 37° Northeast 510 587 41,000  Level Edmonton Center
Thu 01:51:55 PM 54.1667 -102.3833 47° Northeast 510 587 41,000  Level Edmonton Center
Thu 01:52:55 PM 54.2833 -102.2333 37° Northeast 520 598 41,000  Level Edmonton Center
Thu 01:53:55 PM 54.3833 -102.0833 41° Northeast 510 587 41,000  Level Edmonton Center
Thu 01:54:55 PM 54.5000 -101.9000 42° Northeast 510 587 41,000  Level Edmonton Center
Thu 01:55:55 PM 54.5833 -101.7500 46° Northeast 510 587 41,000  Level Edmonton Center
Thu 01:56:55 PM 54.7000 -101.5667 42° Northeast 510 587 41,000  Level Edmonton Center
Thu 01:57:55 PM 54.8000 -101.4000 44° Northeast 510 587 41,000  Level Edmonton Center
Thu 01:58:55 PM 54.9167 -101.2500 36° Northeast 500 575 41,000  Level Edmonton Center
Thu 01:59:55 PM 55.0167 -101.0833 44° Northeast 500 575 41,000  Level Edmonton Center
Thu 02:00:55 PM 55.1000 -100.9000 51° Northeast 490 564 41,000  Level Edmonton Center
Thu 02:01:55 PM 55.2167 -100.7500 36° Northeast 490 564 41,000  Level Edmonton Center
Thu 02:02:55 PM 55.3167 -100.5833 43° Northeast 500 575 41,000  Level Edmonton Center
Thu 02:03:55 PM 55.4167 -100.4000 46° Northeast 500 575 41,000  Level Edmonton Center
Thu 02:04:55 PM 55.5000 -100.2333 49° Northeast 490 564 41,000  Level Edmonton Center
Thu 02:05:55 PM 55.6167 -100.0667 39° Northeast 490 564 41,000  Level Edmonton Center
Thu 02:06:55 PM 55.7167 -99.9000 43° Northeast 490 564 41,000  Level Edmonton Center
Thu 02:07:55 PM 55.8167 -99.7333 43° Northeast 490 564 41,000  Level Edmonton Center
Thu 02:08:55 PM 55.9167 -99.5667 43° Northeast 490 564 41,000  Level Edmonton Center
Thu 02:09:55 PM 56.0167 -99.3833 46° Northeast 490 564 41,000  Level Edmonton Center
Thu 02:10:55 PM 56.1000 -99.2167 48° Northeast 490 564 41,000  Level Edmonton Center
Thu 02:11:55 PM 56.2167 -99.0333 41° Northeast 490 564 41,000  Level Edmonton Center
Thu 02:12:55 PM 56.3167 -98.8667 43° Northeast 490 564 41,000  Level Edmonton Center
Thu 02:13:55 PM 56.4000 -98.7000 48° Northeast 490 564 41,000  Level Edmonton Center
Thu 02:14:55 PM 56.5167 -98.5000 43° Northeast 480 552 41,000  Level Edmonton Center
Thu 02:15:55 PM 56.6000 -98.3333 48° Northeast 490 564 41,000  Level Edmonton Center
Thu 02:16:55 PM 56.7000 -98.1500 45° Northeast 490 564 41,000  Level Edmonton Center
Thu 02:17:55 PM 56.7833 -97.9833 48° Northeast 490 564 41,000  Level Edmonton Center
Thu 02:18:55 PM 56.9000 -97.7833 43° Northeast 480 552 41,000  Level Edmonton Center
Thu 02:19:55 PM 56.9833 -97.6333 44° Northeast 490 564 41,000  Level Edmonton Center
Thu 02:20:55 PM 57.0833 -97.4500 45° Northeast 490 564 41,000  Level Edmonton Center
Thu 02:21:55 PM 57.1667 -97.2500 52° Northeast 480 552 41,000  Level Edmonton Center
Thu 02:22:55 PM 57.2667 -97.0667 45° Northeast 480 552 41,000  Level Edmonton Center
Thu 02:23:55 PM 57.3667 -96.8833 45° Northeast 490 564 41,000  Level Edmonton Center
Thu 02:24:55 PM 57.4667 -96.7167 42° Northeast 490 564 41,000  Level Edmonton Center
Thu 02:25:55 PM 57.5500 -96.5333 50° Northeast 480 552 41,000  Level Edmonton Center
Thu 02:26:55 PM 57.6333 -96.3500 50° Northeast 480 552 41,000  Level Edmonton Center
Thu 02:27:55 PM 57.7500 -96.1333 45° Northeast 480 552 41,000  Level Edmonton Center
Thu 02:28:55 PM 57.8333 -95.9500 49° Northeast 480 552 41,000  Level Edmonton Center
Thu 02:29:55 PM 57.9333 -95.8000 39° Northeast 480 552 41,000  Level Edmonton Center
Thu 02:30:55 PM 58.0167 -95.5833 54° Northeast 480 552 41,000  Level Edmonton Center
Thu 02:31:55 PM 58.1000 -95.4000 49° Northeast 480 552 41,000  Level Edmonton Center
Thu 02:32:55 PM 58.2000 -95.2000 46° Northeast 480 552 41,000  Level Edmonton Center
Thu 02:33:55 PM 58.3000 -95.0167 44° Northeast 480 552 41,000  Level Edmonton Center
Thu 02:34:55 PM 58.3833 -94.8333 49° Northeast 480 552 41,000  Level Edmonton Center
Thu 02:35:55 PM 58.4667 -94.6333 51° Northeast 480 552 41,000  Level Edmonton Center
Thu 02:36:55 PM 58.5667 -94.4500 44° Northeast 480 552 41,000  Level Edmonton Center
Thu 02:37:55 PM 58.6667 -94.2500 46° Northeast 490 564 41,000  Level Edmonton Center
Thu 02:38:55 PM 58.7500 -94.0667 49° Northeast 490 564 41,000  Level Edmonton Center
Thu 02:39:55 PM 58.8333 -93.8333 55° Northeast 490 564 41,000  Level Edmonton Center
Thu 02:40:55 PM 58.9333 -93.6667 41° Northeast 480 552 41,000  Level Edmonton Center
Thu 02:42:55 PM 59.1000 -93.2500 52° Northeast 510 587 41,000  Level Edmonton Center
Thu 02:45:00 PM 59.2710 -92.8155 52° Northeast  Level FlightAware Approximate
Thu 02:52:00 PM 59.8345 -91.3233 53° Northeast  Level FlightAware Approximate
Thu 02:53:00 PM 59.9136 -91.1061 54° Northeast  Level FlightAware Approximate
Thu 02:54:00 PM 59.9924 -90.8878 54° Northeast  Level FlightAware Approximate
Thu 02:55:00 PM 60.0708 -90.6684 54° Northeast  Level FlightAware Approximate
Thu 02:56:00 PM 60.1488 -90.4481 55° Northeast  Level FlightAware Approximate
Thu 02:57:00 PM 60.2264 -90.2266 55° Northeast  Level FlightAware Approximate
Thu 02:58:00 PM 60.3037 -90.0042 55° Northeast  Level FlightAware Approximate
Thu 02:59:00 PM 60.3806 -89.7806 55° Northeast  Level FlightAware Approximate
Thu 03:00:00 PM 60.4571 -89.5561 55° Northeast  Level FlightAware Approximate
Thu 03:01:00 PM 60.5333 -89.3304 55° Northeast  Level FlightAware Approximate
Thu 03:02:00 PM 60.6091 -89.1037 56° Northeast  Level FlightAware Approximate
Thu 03:03:00 PM 60.6844 -88.8759 56° Northeast  Level FlightAware Approximate
Thu 03:04:00 PM 60.7594 -88.6471 56° Northeast  Level FlightAware Approximate
Thu 03:05:00 PM 60.8340 -88.4172 56° Northeast  Level FlightAware Approximate
Thu 03:06:00 PM 60.9083 -88.1862 56° Northeast  Level FlightAware Approximate
Thu 03:07:00 PM 60.9821 -87.9542 57° Northeast  Level FlightAware Approximate
Thu 03:08:00 PM 61.0555 -87.7210 57° Northeast  Level FlightAware Approximate
Thu 03:09:00 PM 61.1285 -87.4868 57° Northeast  Level FlightAware Approximate
Thu 03:10:00 PM 61.2011 -87.2515 57° Northeast  Level FlightAware Approximate
Thu 03:11:00 PM 61.2733 -87.0152 57° Northeast  Level FlightAware Approximate
Thu 03:12:00 PM 61.3451 -86.7777 58° Northeast  Level FlightAware Approximate
Thu 03:13:00 PM 61.4164 -86.5392 58° Northeast  Level FlightAware Approximate
Thu 03:14:00 PM 61.4874 -86.2995 58° Northeast  Level FlightAware Approximate
Thu 03:15:00 PM 61.5579 -86.0588 58° Northeast  Level FlightAware Approximate
Thu 03:16:00 PM 61.6280 -85.8170 59° Northeast  Level FlightAware Approximate
Thu 03:17:00 PM 61.6977 -85.5741 59° Northeast  Level FlightAware Approximate
Thu 03:18:00 PM 61.7669 -85.3300 59° Northeast  Level FlightAware Approximate
Thu 03:19:00 PM 61.8357 -85.0849 59° Northeast  Level FlightAware Approximate
Thu 03:20:00 PM 61.9041 -84.8387 59° Northeast  Level FlightAware Approximate
Thu 03:21:00 PM 61.9720 -84.5914 60° Northeast  Level FlightAware Approximate
Thu 03:22:00 PM 62.0395 -84.3430 60° Northeast  Level FlightAware Approximate
Thu 03:23:00 PM 62.1065 -84.0935 60° Northeast  Level FlightAware Approximate
Thu 03:24:00 PM 62.1731 -83.8429 60° Northeast  Level FlightAware Approximate
Thu 03:25:00 PM 62.2392 -83.5912 60° Northeast  Level FlightAware Approximate
Thu 03:26:00 PM 62.3049 -83.3384 61° Northeast  Level FlightAware Approximate
Thu 03:27:00 PM 62.3701 -83.0844 61° Northeast  Level FlightAware Approximate
Thu 03:28:00 PM 62.4348 -82.8294 61° Northeast  Level FlightAware Approximate
Thu 03:29:00 PM 62.4991 -82.5733 61° Northeast  Level FlightAware Approximate
Thu 03:30:00 PM 62.5629 -82.3161 62° Northeast  Level FlightAware Approximate
Thu 03:31:00 PM 62.6262 -82.0577 62° Northeast  Level FlightAware Approximate
Thu 03:32:00 PM 62.6890 -81.7983 62° Northeast  Level FlightAware Approximate
Thu 03:33:00 PM 62.7527 -81.5399 61° Northeast  Level FlightAware Approximate
Thu 03:34:00 PM 62.8172 -81.2812 61° Northeast  Level FlightAware Approximate
Thu 03:35:00 PM 62.8811 -81.0214 62° Northeast  Level FlightAware Approximate
Thu 03:36:00 PM 62.9446 -80.7604 62° Northeast  Level FlightAware Approximate
Thu 03:37:00 PM 63.0076 -80.4983 62° Northeast  Level FlightAware Approximate
Thu 03:38:00 PM 63.0701 -80.2351 62° Northeast  Level FlightAware Approximate
Thu 03:39:00 PM 63.1321 -79.9707 62° Northeast  Level FlightAware Approximate
Thu 03:40:00 PM 63.1936 -79.7053 63° Northeast  Level FlightAware Approximate
Thu 03:41:00 PM 63.2546 -79.4387 63° Northeast  Level FlightAware Approximate
Thu 03:42:00 PM 63.3151 -79.1710 63° Northeast  Level FlightAware Approximate
Thu 03:43:00 PM 63.3751 -78.9021 63° Northeast  Level FlightAware Approximate
Thu 03:44:00 PM 63.4347 -78.6321 64° Northeast  Level FlightAware Approximate
Thu 03:45:00 PM 63.4937 -78.3611 64° Northeast  Level FlightAware Approximate
Thu 03:46:00 PM 63.5522 -78.0889 64° Northeast  Level FlightAware Approximate
Thu 03:47:00 PM 63.6101 -77.8155 64° Northeast  Level FlightAware Approximate
Thu 03:48:00 PM 63.6676 -77.5411 65° Northeast  Level FlightAware Approximate
Thu 03:49:00 PM 63.7245 -77.2656 65° Northeast  Level FlightAware Approximate
Thu 03:50:00 PM 63.7809 -76.9889 65° Northeast  Level FlightAware Approximate
Thu 03:51:00 PM 63.8367 -76.7112 65° Northeast  Level FlightAware Approximate
Thu 03:51:54 PM 64.2500 -76.4833 67° East 510 587 41,000  Level Edmonton Center
Thu 03:52:00 PM 63.8921 -76.4323 66° East  Level FlightAware Approximate
Thu 03:52:54 PM 64.3333 -76.2000 56° Northeast 500 575 41,000  Level Edmonton Center
Thu 03:53:00 PM 63.9469 -76.1524 66° East  Level FlightAware Approximate
Thu 03:53:54 PM 64.3833 -75.9333 66° East 490 564 41,000  Level Edmonton Center
Thu 03:54:00 PM 64.0011 -75.8714 66° East  Level FlightAware Approximate
Thu 03:54:54 PM 64.4333 -75.6500 68° East 500 575 41,000  Level Edmonton Center
Thu 03:55:00 PM 64.0548 -75.5892 66° East  Level FlightAware Approximate
Thu 03:55:54 PM 64.5000 -75.3500 63° Northeast 490 564 41,000  Level Edmonton Center
Thu 03:56:00 PM 64.1080 -75.3060 67° East  Level FlightAware Approximate
Thu 03:56:54 PM 64.5500 -75.0500 69° East 490 564 41,000  Level Edmonton Center
Thu 03:57:00 PM 64.1606 -75.0218 67° East  Level FlightAware Approximate
Thu 03:57:54 PM 64.6167 -74.7500 62° Northeast 490 564 41,000  Level Edmonton Center
Thu 03:58:54 PM 64.6667 -74.4667 67° East 490 564 41,000  Level Edmonton Center
Thu 03:59:54 PM 64.7333 -74.1667 62° Northeast 500 575 41,000  Level Edmonton Center
Thu 04:00:54 PM 64.7833 -73.8833 67° East 500 575 41,000  Level Edmonton Center
Thu 04:01:54 PM 64.8500 -73.5833 62° Northeast 500 575 41,000  Level Edmonton Center
Thu 04:02:54 PM 64.9000 -73.3000 67° East 500 575 41,000  Level Edmonton Center
Thu 04:03:54 PM 64.9500 -72.9667 70° East 500 575 41,000  Level Edmonton Center
Thu 04:04:54 PM 65.0167 -72.6500 63° Northeast 490 564 41,000  Level Edmonton Center
Thu 04:05:54 PM 65.0500 -72.3667 74° East 500 575 41,000  Level Edmonton Center
Thu 04:06:54 PM 65.1000 -72.0833 67° East 500 575 41,000  Level Edmonton Center
Thu 04:07:54 PM 65.1667 -71.7667 63° Northeast 500 575 41,000  Level Edmonton Center
Thu 04:08:54 PM 65.2167 -71.4833 67° East 500 575 41,000  Level Edmonton Center
Thu 04:09:54 PM 65.2667 -71.1333 71° East 500 575 41,000  Level Edmonton Center
Thu 04:10:54 PM 65.3000 -70.8500 74° East 500 575 41,000  Level Edmonton Center
Thu 04:11:54 PM 65.3667 -70.5333 63° Northeast 500 575 41,000  Level Edmonton Center
Thu 04:12:54 PM 65.4000 -70.2333 75° East 500 575 41,000  Level Edmonton Center
Thu 04:13:54 PM 65.4667 -69.9167 63° Northeast 500 575 41,000  Level Edmonton Center
Thu 04:14:54 PM 65.5000 -69.5833 76° East 490 564 41,000 250 Level Edmonton Center
Thu 04:15:54 PM 65.5333 -69.2667 76° East 500 575 41,500 500 Climbing Edmonton Center
Thu 04:16:54 PM 65.5500 -68.9333 83° East 510 587 42,000 500 Climbing Edmonton Center
Thu 04:17:54 PM 65.5667 -68.5833 83° East 510 587 42,500 550 Climbing Edmonton Center
Thu 04:18:54 PM 65.6000 -68.2500 76° East 510 587 43,100 600 Climbing Edmonton Center
Thu 04:19:54 PM 65.6167 -67.9167 83° East 500 575 43,700 500 Climbing Edmonton Center
Thu 04:20:54 PM 65.6333 -67.6000 83° East 500 575 44,100 400 Climbing Edmonton Center
Thu 04:21:54 PM 65.6667 -67.2667 76° East 500 575 44,500 400 Climbing Edmonton Center
Thu 04:22:54 PM 65.7000 -66.9333 76° East 500 575 44,900 250 Climbing Edmonton Center
Thu 04:23:54 PM 65.7167 -66.6000 83° East 500 575 45,000 50 Climbing Edmonton Center
Thu 04:24:54 PM 65.7333 -66.2833 83° East 500 575 45,000  Level Edmonton Center
Thu 04:25:54 PM 65.7500 -65.9167 84° East 500 575 45,000  Level Edmonton Center
Thu 04:26:54 PM 65.7667 -65.5833 83° East 500 575 45,000  Level Edmonton Center
Thu 04:27:54 PM 65.7833 -65.2667 83° East 500 575 45,000  Level Edmonton Center
Thu 04:30:00 PM 65.8212 -64.5816 82° East  Level FlightAware Approximate
Thu 04:30:52 PM 65.8333 -64.2833 82° East 500 575 45,000  Level Edmonton Center
Thu 04:31:52 PM 65.8500 -63.9333 83° East 500 575 45,000  Level Edmonton Center
Thu 04:32:52 PM 65.8667 -63.6000 83° East 510 587 45,000  Level Edmonton Center
Thu 04:33:52 PM 65.8667 -63.2833 90° East 500 575 45,000  Level Edmonton Center
Thu 04:34:52 PM 65.8833 -62.9167 83° East 510 587 45,000  Level Edmonton Center
Thu 04:35:52 PM 65.9167 -62.6000 75° East 500 575 45,000  Level Edmonton Center
Thu 04:37:00 PM 65.9314 -62.2265 84° East  Level FlightAware Approximate
Thu 04:44:00 PM 66.0027 -59.9110 86° East  Level FlightAware Approximate
Thu 04:45:00 PM 66.0121 -59.5796 86° East  Level FlightAware Approximate
Thu 04:46:00 PM 66.0208 -59.2479 86° East  Level FlightAware Approximate
Thu 04:47:00 PM 66.0289 -58.9161 86° East  Level FlightAware Approximate
Thu 04:48:00 PM 66.0365 -58.5841 87° East  Level FlightAware Approximate
Thu 04:49:00 PM 66.0440 -58.2519 87° East  Level FlightAware Approximate
Thu 04:50:00 PM 66.0508 -57.9196 87° East  Level FlightAware Approximate
Thu 04:51:00 PM 66.0568 -57.5871 87° East  Level FlightAware Approximate
Thu 04:52:00 PM 66.0621 -57.2545 88° East  Level FlightAware Approximate
Thu 04:53:00 PM 66.0667 -56.9217 88° East  Level FlightAware Approximate
Thu 04:54:00 PM 66.0706 -56.5888 88° East  Level FlightAware Approximate
Thu 04:55:00 PM 66.0738 -56.2559 88° East  Level FlightAware Approximate
Thu 04:56:00 PM 66.0763 -55.9228 89° East  Level FlightAware Approximate
Thu 04:57:00 PM 66.0780 -55.5897 89° East  Level FlightAware Approximate
Thu 04:58:00 PM 66.0791 -55.2566 89° East  Level FlightAware Approximate
Thu 04:59:00 PM 66.0794 -54.9234 90° East  Level FlightAware Approximate
Thu 05:00:00 PM 66.0790 -54.5903 90° East  Level FlightAware Approximate
Thu 05:01:00 PM 66.0778 -54.2571 90° East  Level FlightAware Approximate
Thu 05:02:00 PM 66.0760 -53.9240 91° East  Level FlightAware Approximate
Thu 05:03:00 PM 66.0734 -53.5910 91° East  Level FlightAware Approximate
Thu 05:04:00 PM 66.0701 -53.2580 91° East  Level FlightAware Approximate
Thu 05:05:00 PM 66.0661 -52.9252 92° East  Level FlightAware Approximate
Thu 05:06:00 PM 66.0614 -52.5924 92° East  Level FlightAware Approximate
Thu 05:07:00 PM 66.0560 -52.2598 92° East  Level FlightAware Approximate
Thu 05:08:00 PM 66.0498 -51.9273 92° East  Level FlightAware Approximate
Thu 05:09:00 PM 66.0430 -51.5950 93° East  Level FlightAware Approximate
Thu 05:10:00 PM 66.0354 -51.2629 93° East  Level FlightAware Approximate
Thu 05:11:00 PM 66.0271 -50.9310 93° East  Level FlightAware Approximate
Thu 05:12:00 PM 66.0181 -50.5993 94° East  Level FlightAware Approximate
Thu 05:13:00 PM 66.0084 -50.2679 94° East  Level FlightAware Approximate
Thu 05:14:00 PM 66.0082 -49.9399 71° East  Level FlightAware Approximate
Thu 05:15:00 PM 66.0509 -49.6244 71° East  Level FlightAware Approximate
Thu 05:16:00 PM 66.0930 -49.3079 72° East  Level FlightAware Approximate
Thu 05:17:00 PM 66.1344 -48.9904 72° East  Level FlightAware Approximate
Thu 05:18:00 PM 66.1752 -48.6718 72° East  Level FlightAware Approximate
Thu 05:19:00 PM 66.2153 -48.3522 73° East  Level FlightAware Approximate
Thu 05:20:00 PM 66.2548 -48.0316 73° East  Level FlightAware Approximate
Thu 05:21:00 PM 66.2935 -47.7100 73° East  Level FlightAware Approximate
Thu 05:22:00 PM 66.3316 -47.3874 73° East  Level FlightAware Approximate
Thu 05:23:00 PM 66.3691 -47.0639 74° East  Level FlightAware Approximate
Thu 05:24:00 PM 66.4059 -46.7393 74° East  Level FlightAware Approximate
Thu 05:25:00 PM 66.4420 -46.4139 74° East  Level FlightAware Approximate
Thu 05:26:00 PM 66.4774 -46.0875 75° East  Level FlightAware Approximate
Thu 05:27:00 PM 66.5121 -45.7602 75° East  Level FlightAware Approximate
Thu 05:28:00 PM 66.5462 -45.4320 75° East  Level FlightAware Approximate
Thu 05:29:00 PM 66.5795 -45.1029 76° East  Level FlightAware Approximate
Thu 05:30:00 PM 66.6122 -44.7729 76° East  Level FlightAware Approximate
Thu 05:31:00 PM 66.6442 -44.4420 76° East  Level FlightAware Approximate
Thu 05:32:00 PM 66.6755 -44.1103 76° East  Level FlightAware Approximate
Thu 05:33:00 PM 66.7060 -43.7778 77° East  Level FlightAware Approximate
Thu 05:34:00 PM 66.7359 -43.4444 77° East  Level FlightAware Approximate
Thu 05:35:00 PM 66.7651 -43.1103 77° East  Level FlightAware Approximate
Thu 05:36:00 PM 66.7935 -42.7754 78° East  Level FlightAware Approximate
Thu 05:37:00 PM 66.8213 -42.4397 78° East  Level FlightAware Approximate
Thu 05:38:00 PM 66.8483 -42.1032 78° East  Level FlightAware Approximate
Thu 05:39:00 PM 66.8746 -41.7660 79° East  Level FlightAware Approximate
Thu 05:40:00 PM 66.9003 -41.4281 79° East  Level FlightAware Approximate
Thu 05:41:00 PM 66.9251 -41.0896 79° East  Level FlightAware Approximate
Thu 05:42:00 PM 66.9493 -40.7503 80° East  Level FlightAware Approximate
Thu 05:43:00 PM 66.9727 -40.4103 80° East  Level FlightAware Approximate
Thu 05:44:00 PM 66.9955 -40.0698 80° East  Level FlightAware Approximate
Thu 05:45:00 PM 67.0352 -39.7400 71° East  Level FlightAware Approximate
Thu 05:46:00 PM 67.0788 -39.4120 71° East  Level FlightAware Approximate
Thu 05:47:00 PM 67.1217 -39.0829 71° East  Level FlightAware Approximate
Thu 05:48:00 PM 67.1640 -38.7525 72° East  Level FlightAware Approximate
Thu 05:49:00 PM 67.2056 -38.4211 72° East  Level FlightAware Approximate
Thu 05:50:00 PM 67.2465 -38.0885 72° East  Level FlightAware Approximate
Thu 05:51:00 PM 67.2867 -37.7548 73° East  Level FlightAware Approximate
Thu 05:52:00 PM 67.3262 -37.4199 73° East  Level FlightAware Approximate
Thu 05:53:00 PM 67.3650 -37.0840 73° East  Level FlightAware Approximate
Thu 05:54:00 PM 67.4031 -36.7470 73° East  Level FlightAware Approximate
Thu 05:55:00 PM 67.4405 -36.4089 74° East  Level FlightAware Approximate
Thu 05:56:00 PM 67.4772 -36.0698 74° East  Level FlightAware Approximate
Thu 05:57:00 PM 67.5132 -35.7296 74° East  Level FlightAware Approximate
Thu 05:58:00 PM 67.5485 -35.3884 75° East  Level FlightAware Approximate
Thu 05:59:00 PM 67.5830 -35.0462 75° East  Level FlightAware Approximate
Thu 06:00:00 PM 67.6169 -34.7030 75° East  Level FlightAware Approximate
Thu 06:01:00 PM 67.6500 -34.3588 76° East  Level FlightAware Approximate
Thu 06:02:00 PM 67.6823 -34.0137 76° East  Level FlightAware Approximate
Thu 06:03:00 PM 67.7140 -33.6676 76° East  Level FlightAware Approximate
Thu 06:04:00 PM 67.7449 -33.3207 77° East  Level FlightAware Approximate
Thu 06:05:00 PM 67.7750 -32.9728 77° East  Level FlightAware Approximate
Thu 06:06:00 PM 67.8045 -32.6240 77° East  Level FlightAware Approximate
Thu 06:07:00 PM 67.8331 -32.2743 78° East  Level FlightAware Approximate
Thu 06:08:00 PM 67.8611 -31.9238 78° East  Level FlightAware Approximate
Thu 06:09:00 PM 67.8882 -31.5725 78° East  Level FlightAware Approximate
Thu 06:10:00 PM 67.9147 -31.2204 79° East  Level FlightAware Approximate
Thu 06:11:00 PM 67.9403 -30.8674 79° East  Level FlightAware Approximate
Thu 06:12:00 PM 67.9653 -30.5137 79° East  Level FlightAware Approximate
Thu 06:13:00 PM 67.9894 -30.1593 80° East  Level FlightAware Approximate
Thu 06:14:00 PM 67.9864 -29.8046 100° East  Level FlightAware Approximate
Thu 06:15:00 PM 67.9612 -29.4507 101° East  Level FlightAware Approximate
Thu 06:16:00 PM 67.9351 -29.0977 101° East  Level FlightAware Approximate
Thu 06:17:00 PM 67.9084 -28.7454 101° East  Level FlightAware Approximate
Thu 06:18:00 PM 67.8809 -28.3940 102° East  Level FlightAware Approximate
Thu 06:19:00 PM 67.8526 -28.0434 102° East  Level FlightAware Approximate
Thu 06:20:00 PM 67.8236 -27.6936 102° East  Level FlightAware Approximate
Thu 06:21:00 PM 67.7941 -27.3446 102° East  Level FlightAware Approximate
Thu 06:22:00 PM 67.7649 -26.9958 102° East  Level FlightAware Approximate
Thu 06:23:00 PM 67.7350 -26.6479 103° East  Level FlightAware Approximate
Thu 06:24:00 PM 67.7044 -26.3009 103° East  Level FlightAware Approximate
Thu 06:25:00 PM 67.6730 -25.9548 103° East  Level FlightAware Approximate
Thu 06:26:00 PM 67.6409 -25.6096 104° East  Level FlightAware Approximate
Thu 06:27:00 PM 67.6081 -25.2654 104° East  Level FlightAware Approximate
Thu 06:28:00 PM 67.5746 -24.9221 104° East  Level FlightAware Approximate
Thu 06:29:00 PM 67.5403 -24.5798 105° East  Level FlightAware Approximate
Thu 06:30:00 PM 67.5053 -24.2386 105° East  Level FlightAware Approximate
Thu 06:31:00 PM 67.4696 -23.8983 105° East  Level FlightAware Approximate
Thu 06:32:00 PM 67.4331 -23.5591 105° East  Level FlightAware Approximate
Thu 06:33:00 PM 67.3960 -23.2209 106° East  Level FlightAware Approximate
Thu 06:34:00 PM 67.3582 -22.8838 106° East  Level FlightAware Approximate
Thu 06:35:00 PM 67.3196 -22.5478 106° East  Level FlightAware Approximate
Thu 06:36:00 PM 67.2804 -22.2128 107° East  Level FlightAware Approximate
Thu 06:37:00 PM 67.2404 -21.8790 107° East  Level FlightAware Approximate
Thu 06:38:00 PM 67.1998 -21.5462 107° East  Level FlightAware Approximate
Thu 06:39:00 PM 67.1585 -21.2146 108° East  Level FlightAware Approximate
Thu 06:40:00 PM 67.1165 -20.8842 108° East  Level FlightAware Approximate
Thu 06:41:00 PM 67.0738 -20.5549 108° East  Level FlightAware Approximate
Thu 06:42:00 PM 67.0304 -20.2267 109° East  Level FlightAware Approximate
Thu 06:43:00 PM 66.9847 -19.9014 112° Southeast  Level FlightAware Approximate
Thu 06:44:00 PM 66.9346 -19.5809 112° Southeast  Level FlightAware Approximate
Thu 06:45:00 PM 66.8838 -19.2617 112° Southeast  Level FlightAware Approximate
Thu 06:46:00 PM 66.8324 -18.9439 112° Southeast  Level FlightAware Approximate
Thu 06:47:00 PM 66.7803 -18.6274 113° Southeast  Level FlightAware Approximate
Thu 06:48:00 PM 66.7276 -18.3123 113° Southeast  Level FlightAware Approximate
Thu 06:49:00 PM 66.6742 -17.9985 113° Southeast  Level FlightAware Approximate
Thu 06:50:00 PM 66.6203 -17.6860 113° Southeast  Level FlightAware Approximate
Thu 06:51:00 PM 66.5657 -17.3750 114° Southeast  Level FlightAware Approximate
Thu 06:52:00 PM 66.5106 -17.0653 114° Southeast  Level FlightAware Approximate
Thu 06:53:00 PM 66.4548 -16.7569 114° Southeast  Level FlightAware Approximate
Thu 06:54:00 PM 66.3984 -16.4500 115° Southeast  Level FlightAware Approximate
Thu 06:55:00 PM 66.3414 -16.1444 115° Southeast  Level FlightAware Approximate
Thu 06:56:00 PM 66.2838 -15.8403 115° Southeast  Level FlightAware Approximate
Thu 06:57:00 PM 66.2256 -15.5375 115° Southeast  Level FlightAware Approximate
Thu 06:58:00 PM 66.1668 -15.2362 116° Southeast  Level FlightAware Approximate
Thu 06:59:00 PM 66.1075 -14.9362 116° Southeast  Level FlightAware Approximate
Thu 07:00:00 PM 66.0475 -14.6377 116° Southeast  Level FlightAware Approximate
Thu 07:01:00 PM 65.9870 -14.3405 116° Southeast  Level FlightAware Approximate
Thu 07:02:00 PM 65.9260 -14.0448 117° Southeast  Level FlightAware Approximate
Thu 07:03:00 PM 65.8643 -13.7505 117° Southeast  Level FlightAware Approximate
Thu 07:04:00 PM 65.8021 -13.4576 117° Southeast  Level FlightAware Approximate
Thu 07:05:00 PM 65.7394 -13.1661 118° Southeast  Level FlightAware Approximate
Thu 07:06:00 PM 65.6760 -12.8760 118° Southeast  Level FlightAware Approximate
Thu 07:07:00 PM 65.6122 -12.5874 118° Southeast  Level FlightAware Approximate
Thu 07:08:00 PM 65.5478 -12.3002 118° Southeast  Level FlightAware Approximate
Thu 07:09:00 PM 65.4828 -12.0144 119° Southeast  Level FlightAware Approximate
Thu 07:10:00 PM 65.4174 -11.7300 119° Southeast  Level FlightAware Approximate
Thu 07:11:00 PM 65.3513 -11.4471 119° Southeast  Level FlightAware Approximate
Thu 07:12:00 PM 65.2848 -11.1655 119° Southeast  Level FlightAware Approximate
Thu 07:13:00 PM 65.2177 -10.8854 120° Southeast  Level FlightAware Approximate
Thu 07:14:00 PM 65.1501 -10.6067 120° Southeast  Level FlightAware Approximate
Thu 07:15:00 PM 65.0820 -10.3295 120° Southeast  Level FlightAware Approximate
Thu 07:16:00 PM 65.0134 -10.0536 120° Southeast  Level FlightAware Approximate
Thu 07:17:00 PM 64.9481 -9.7741 118° Southeast  Level FlightAware Approximate
Thu 07:18:00 PM 64.8832 -9.4946 119° Southeast  Level FlightAware Approximate
Thu 07:19:00 PM 64.8178 -9.2165 119° Southeast  Level FlightAware Approximate
Thu 07:20:00 PM 64.7519 -8.9398 119° Southeast  Level FlightAware Approximate
Thu 07:21:00 PM 64.6854 -8.6644 119° Southeast  Level FlightAware Approximate
Thu 07:22:00 PM 64.6185 -8.3903 120° Southeast  Level FlightAware Approximate
Thu 07:23:00 PM 64.5510 -8.1176 120° Southeast  Level FlightAware Approximate
Thu 07:24:00 PM 64.4830 -7.8463 120° Southeast  Level FlightAware Approximate
Thu 07:25:00 PM 64.4146 -7.5763 120° Southeast  Level FlightAware Approximate
Thu 07:26:00 PM 64.3456 -7.3077 121° Southeast  Level FlightAware Approximate
Thu 07:27:00 PM 64.2762 -7.0404 121° Southeast  Level FlightAware Approximate
Thu 07:28:00 PM 64.2062 -6.7744 121° Southeast  Level FlightAware Approximate
Thu 07:29:00 PM 64.1358 -6.5098 121° Southeast  Level FlightAware Approximate
Thu 07:30:00 PM 64.0649 -6.2466 122° Southeast  Level FlightAware Approximate
Thu 07:31:00 PM 63.9936 -5.9846 122° Southeast  Level FlightAware Approximate
Thu 07:32:00 PM 63.9217 -5.7241 122° Southeast  Level FlightAware Approximate
Thu 07:33:00 PM 63.8494 -5.4648 122° Southeast  Level FlightAware Approximate
Thu 07:34:00 PM 63.7767 -5.2069 122° Southeast  Level FlightAware Approximate
Thu 07:35:00 PM 63.7035 -4.9503 123° Southeast  Level FlightAware Approximate
Thu 07:36:00 PM 63.6298 -4.6951 123° Southeast  Level FlightAware Approximate
Thu 07:37:00 PM 63.5557 -4.4412 123° Southeast  Level FlightAware Approximate
Thu 07:38:00 PM 63.4811 -4.1885 123° Southeast  Level FlightAware Approximate
Thu 07:39:00 PM 63.4061 -3.9372 124° Southeast  Level FlightAware Approximate
Thu 07:40:00 PM 63.3306 -3.6873 124° Southeast  Level FlightAware Approximate
Thu 07:41:00 PM 63.2548 -3.4386 124° Southeast  Level FlightAware Approximate
Thu 07:42:00 PM 63.1784 -3.1913 124° Southeast  Level FlightAware Approximate
Thu 07:43:00 PM 63.1017 -2.9452 125° Southeast  Level FlightAware Approximate
Thu 07:44:00 PM 63.0245 -2.7004 125° Southeast  Level FlightAware Approximate
Thu 07:45:00 PM 62.9469 -2.4570 125° Southeast  Level FlightAware Approximate
Thu 07:46:00 PM 62.8689 -2.2148 125° Southeast  Level FlightAware Approximate
Thu 07:47:00 PM 62.7905 -1.9739 125° Southeast  Level FlightAware Approximate
Thu 07:48:00 PM 62.7117 -1.7343 126° Southeast  Level FlightAware Approximate
Thu 07:49:00 PM 62.6325 -1.4960 126° Southeast  Level FlightAware Approximate
Thu 07:50:00 PM 62.5529 -1.2589 126° Southeast  Level FlightAware Approximate
Thu 07:51:00 PM 62.4731 -1.0227 126° Southeast  Level FlightAware Approximate
Thu 07:52:00 PM 62.3929 -0.7878 126° Southeast  Level FlightAware Approximate
Thu 07:53:00 PM 62.3123 -0.5542 127° Southeast  Level FlightAware Approximate
Thu 07:54:00 PM 62.2313 -0.3218 127° Southeast  Level FlightAware Approximate
Thu 07:55:00 PM 62.1500 -0.0906 127° Southeast  Level FlightAware Approximate
Thu 07:56:00 PM 62.0683 0.1393 127° Southeast  Level FlightAware Approximate
Thu 07:57:00 PM 61.9861 0.3680 127° Southeast  Level FlightAware Approximate
Thu 07:58:00 PM 61.9036 0.5954 128° Southeast  Level FlightAware Approximate
Thu 07:59:00 PM 61.8208 0.8216 128° Southeast  Level FlightAware Approximate
Thu 08:00:00 PM 61.7375 1.0466 128° Southeast  Level FlightAware Approximate
Thu 08:01:00 PM 61.6539 1.2704 128° Southeast  Level FlightAware Approximate
Thu 08:02:00 PM 61.5700 1.4930 128° Southeast  Level FlightAware Approximate
Thu 08:03:00 PM 61.4856 1.7144 129° Southeast  Level FlightAware Approximate
Thu 08:04:00 PM 61.4010 1.9345 129° Southeast  Level FlightAware Approximate
Thu 08:05:00 PM 61.3159 2.1535 129° Southeast  Level FlightAware Approximate
Thu 08:06:00 PM 61.2305 2.3713 129° Southeast  Level FlightAware Approximate
Thu 08:07:00 PM 61.1448 2.5879 129° Southeast  Level FlightAware Approximate
Thu 08:08:00 PM 61.0587 2.8033 129° Southeast  Level FlightAware Approximate
Thu 08:09:00 PM 60.9723 3.0176 130° Southeast  Level FlightAware Approximate
Thu 08:10:00 PM 60.8855 3.2307 130° Southeast  Level FlightAware Approximate
Thu 08:11:00 PM 60.7985 3.4426 130° Southeast  Level FlightAware Approximate
Thu 08:12:00 PM 60.7110 3.6534 130° Southeast  Level FlightAware Approximate
Thu 08:12:55 PM 60.1383 3.5405 130° Southeast 480 552 45,000  Level FlightAware UK
Thu 08:13:25 PM 60.0883 3.6312 138° Southeast 478 550 45,000  Level FlightAware UK
Thu 08:13:55 PM 60.0349 3.7212 140° Southeast 480 552 45,000  Level FlightAware UK
Thu 08:14:31 PM 59.9732 3.8282 139° Southeast 478 550 45,000  Level FlightAware UK
Thu 08:15:07 PM 59.9123 3.9325 139° Southeast 476 548 45,000  Level FlightAware UK
Thu 08:15:37 PM 59.8607 4.0204 139° Southeast 478 550 45,000  Level FlightAware UK
Thu 08:16:07 PM 59.8092 4.1073 140° Southeast 478 550 45,000  Level FlightAware UK
Thu 08:16:37 PM 59.7579 4.1944 139° Southeast 478 550 45,000  Level FlightAware UK
Thu 08:17:13 PM 59.6968 4.2981 139° Southeast 480 552 45,000  Level FlightAware UK
Thu 08:17:43 PM 59.6449 4.3850 140° Southeast 480 552 45,000  Level FlightAware UK
Thu 08:18:13 PM 59.5923 4.4728 140° Southeast 480 552 45,000  Level FlightAware UK
Thu 08:18:43 PM 59.5405 4.5594 140° Southeast 480 552 45,000  Level FlightAware UK
Thu 08:19:19 PM 59.4784 4.6620 140° Southeast 478 550 45,000  Level FlightAware UK
Thu 08:19:49 PM 59.4262 4.7489 140° Southeast 476 548 45,000  Level FlightAware UK
Thu 08:20:19 PM 59.3748 4.8337 140° Southeast 480 552 45,000  Level FlightAware UK
Thu 08:20:49 PM 59.3240 4.9188 139° Southeast 480 552 45,000  Level FlightAware UK
Thu 08:21:19 PM 59.2719 5.0035 140° Southeast 480 552 45,000  Level FlightAware UK
Thu 08:21:55 PM 59.2099 5.1042 140° Southeast 478 550 45,000  Level FlightAware UK
Thu 08:22:25 PM 59.1587 5.1892 140° Southeast 482 555 45,000  Level FlightAware UK
Thu 08:22:55 PM 59.1067 5.2729 140° Southeast 480 552 45,000  Level FlightAware UK
Thu 08:23:25 PM 59.0547 5.3568 140° Southeast 476 548 45,000  Level FlightAware UK
Thu 08:23:55 PM 59.0031 5.4395 140° Southeast 478 550 45,000  Level FlightAware UK
Thu 08:24:25 PM 58.9517 5.5222 140° Southeast 480 552 45,000  Level FlightAware UK
Thu 08:26:00 PM 58.8270 5.8586 126° Southeast  Level Estimated
Thu 08:33:00 PM 58.2657 7.3170 126° Southeast  Level Estimated
Thu 08:34:00 PM 58.1842 7.5216 127° Southeast  Level Estimated
Thu 08:35:00 PM 58.1023 7.7252 127° Southeast  Level Estimated
Thu 08:36:00 PM 58.0201 7.9279 127° Southeast  Level Estimated
Thu 08:37:00 PM 57.9377 8.1296 128° Southeast  Level Estimated
Thu 08:38:00 PM 57.8549 8.3304 128° Southeast  Level Estimated
Thu 08:39:00 PM 57.7717 8.5303 128° Southeast  Level Estimated
Thu 08:40:00 PM 57.6883 8.7293 128° Southeast  Level Estimated
Thu 08:41:00 PM 57.6045 8.9274 128° Southeast  Level Estimated
Thu 08:42:00 PM 57.5205 9.1245 128° Southeast  Level Estimated
Thu 08:43:00 PM 57.4361 9.3208 129° Southeast  Level Estimated
Thu 08:44:00 PM 57.3514 9.5161 129° Southeast  Level Estimated
Thu 08:45:00 PM 57.2665 9.7105 129° Southeast  Level Estimated
Thu 08:46:00 PM 57.1812 9.9040 129° Southeast  Level Estimated
Thu 08:47:00 PM 57.0956 10.0967 129° Southeast  Level Estimated
Thu 08:48:00 PM 57.0098 10.2885 129° Southeast  Level Estimated
Thu 08:49:00 PM 56.9236 10.4793 130° Southeast  Level Estimated
Thu 08:50:00 PM 56.8372 10.6693 130° Southeast  Level Estimated
Thu 08:51:00 PM 56.7504 10.8584 130° Southeast  Level Estimated
Thu 08:52:00 PM 56.6634 11.0467 130° Southeast  Level Estimated
Thu 08:53:00 PM 56.5761 11.2340 130° Southeast  Level Estimated
Thu 08:54:00 PM 56.4886 11.4205 130° Southeast  Level Estimated
Thu 08:55:00 PM 56.4007 11.6062 130° Southeast  Level Estimated
Thu 08:56:00 PM 56.3126 11.7910 131° Southeast  Level Estimated
Thu 08:57:00 PM 56.2242 11.9749 131° Southeast  Level Estimated
Thu 08:58:00 PM 56.1355 12.1580 131° Southeast  Level Estimated
Thu 08:59:00 PM 56.0466 12.3403 131° Southeast  Level Estimated
Thu 09:00:00 PM 55.9574 12.5217 131° Southeast  Level Estimated
Thu 09:01:00 PM 55.8679 12.7022 131° Southeast  Level Estimated
Thu 09:02:00 PM 55.7781 12.8820 132° Southeast  Level Estimated
Thu 09:03:00 PM 55.6881 13.0609 132° Southeast  Level Estimated
Thu 09:04:00 PM 55.5979 13.2390 132° Southeast  Level Estimated
Thu 09:05:00 PM 55.5302 13.3716 132° Southeast  Level Estimated
Thu 09:06:00 PM 55.5302 13.3716 349° North  Level Estimated
Thu 09:07:00 PM 55.5302 13.3716 349° North  Level Estimated
Thu 09:08:00 PM 55.5302 13.3716 349° North  Level Estimated
Thu 09:09:00 PM 55.5302 13.3716 349° North  Level Estimated
Thu 09:10:00 PM 55.5302 13.3716 349° North  Level Estimated
Thu 09:11:00 PM 55.5302 13.3716 349° North  Level Estimated
Thu 09:12:00 PM 55.5302 13.3716 349° North  Level Estimated
Thu 09:13:00 PM 55.5302 13.3716 349° North  Level Estimated
Thu 09:14:00 PM 55.5302 13.3716 349° North  Level Estimated
Thu 09:15:00 PM 55.5302 13.3716 349° North  Level Estimated
Thu 09:16:00 PM 55.5302 13.3716 349° North  Level Estimated
Thu 09:17:00 PM 55.5302 13.3716 349° North  Level Estimated
Thu 09:18:00 PM 55.5302 13.3716 349° North  Level Estimated
Thu 09:19:00 PM 55.5302 13.3716 349° North  Level Estimated
Thu 09:20:00 PM 55.5302 13.3716 349° North  Level Estimated
Thu 09:21:00 PM 55.5302 13.3716 349° North  Level Estimated
Thu 09:22:00 PM 55.5302 13.3716 349° North  Level Estimated
Thu 09:23:00 PM 55.5302 13.3716 349° North  Level Estimated
Thu 09:24:00 PM 55.5302 13.3716 349° North  Level Estimated
Thu 09:25:00 PM 55.5302 13.3716 349° North  Level Estimated
Thu 09:26:00 PM 55.5302 13.3716 349° North  Level Estimated
Thu 09:27:00 PM 55.5302 13.3716 349° North  Level Estimated
Thu 09:28:00 PM 55.5302 13.3716 349° North  Level Estimated
Thu 09:29:00 PM 55.5302 13.3716 349° North  Level Estimated
Thu 09:30:00 PM 55.5302 13.3716 349° North  Level Estimated
Thu 09:31:00 PM 55.5302 13.3716 349° North  Level Estimated
Thu 09:32:00 PM 55.5302 13.3716 349° North  Level Estimated
Thu 09:33:00 PM 55.5302 13.3716 349° North  Level Estimated

Login

Don't have an account? Register now (free) for customized features, flight alerts, and more!